Map

Track Data

SID SEASON NUMBER BASIN SUBBASIN NAME ISO_TIME NATURE LAT LON WMO_WIND WMO_PRES WMO_AGENCY TRACK_TYPE DIST2LAND LANDFALL IFLAG USA_AGENCY USA_ATCF_ID USA_LAT USA_LON USA_RECORD USA_STATUS USA_WIND USA_PRES USA_SSHS USA_R34_NE USA_R34_SE USA_R34_SW USA_R34_NW USA_R50_NE USA_R50_SE USA_R50_SW USA_R50_NW USA_R64_NE USA_R64_SE USA_R64_SW USA_R64_NW USA_POCI USA_ROCI USA_RMW USA_EYE TOKYO_LAT TOKYO_LON TOKYO_GRADE TOKYO_WIND TOKYO_PRES TOKYO_R50_DIR TOKYO_R50_LONG TOKYO_R50_SHORT TOKYO_R30_DIR TOKYO_R30_LONG TOKYO_R30_SHORT TOKYO_LAND CMA_LAT CMA_LON CMA_CAT CMA_WIND CMA_PRES HKO_LAT HKO_LON HKO_CAT HKO_WIND HKO_PRES NEWDELHI_LAT NEWDELHI_LON NEWDELHI_GRADE NEWDELHI_WIND NEWDELHI_PRES NEWDELHI_CI NEWDELHI_DP NEWDELHI_POCI REUNION_LAT REUNION_LON REUNION_TYPE REUNION_WIND REUNION_PRES REUNION_TNUM REUNION_CI REUNION_RMW REUNION_R34_NE REUNION_R34_SE REUNION_R34_SW REUNION_R34_NW REUNION_R50_NE REUNION_R50_SE REUNION_R50_SW REUNION_R50_NW REUNION_R64_NE REUNION_R64_SE REUNION_R64_SW REUNION_R64_NW BOM_LAT BOM_LON BOM_TYPE BOM_WIND BOM_PRES BOM_TNUM BOM_CI BOM_RMW BOM_R34_NE BOM_R34_SE BOM_R34_SW BOM_R34_NW BOM_R50_NE BOM_R50_SE BOM_R50_SW BOM_R50_NW BOM_R64_NE BOM_R64_SE BOM_R64_SW BOM_R64_NW BOM_ROCI BOM_POCI BOM_EYE BOM_POS_METHOD BOM_PRES_METHOD NADI_LAT NADI_LON NADI_CAT NADI_WIND NADI_PRES WELLINGTON_LAT WELLINGTON_LON WELLINGTON_WIND WELLINGTON_PRES DS824_LAT DS824_LON DS824_STAGE DS824_WIND DS824_PRES TD9636_LAT TD9636_LON TD9636_STAGE TD9636_WIND TD9636_PRES TD9635_LAT TD9635_LON TD9635_WIND TD9635_PRES TD9635_ROCI NEUMANN_LAT NEUMANN_LON NEUMANN_CLASS NEUMANN_WIND NEUMANN_PRES MLC_LAT MLC_LON MLC_CLASS MLC_WIND MLC_PRES USA_GUST BOM_GUST BOM_GUST_PER REUNION_GUST REUNION_GUST_PER USA_SEAHGT USA_SEARAD_NE USA_SEARAD_SE USA_SEARAD_SW USA_SEARAD_NW STORM_SPEED STORM_DIR
1916320N15139 1916 70 WP MM NOT_NAMED 1916-11-15 09:00:00 NR 15.2000 138.700 main 1465 1457 __________O___ -1 15.2000 138.700 7 5 335
1916320N15139 1916 70 WP MM NOT_NAMED 1916-11-15 12:00:00 NR 15.4317 138.586 main 1459 1446 __________P___ -1 15.4317 138.586 7 6 331
1916320N15139 1916 70 WP MM NOT_NAMED 1916-11-15 15:00:00 NR 15.7207 138.399 main 1446 1424 __________P___ -1 15.7207 138.399 7 9 324
1916320N15139 1916 70 WP MM NOT_NAMED 1916-11-15 18:00:00 NR 16.1246 138.062 main 1427 1386 __________P___ -1 16.1246 138.062 7 13 319
1916320N15139 1916 70 WP MM NOT_NAMED 1916-11-15 21:00:00 NR 16.7000 137.500 main 1386 1337 __________O___ -1 16.7000 137.500 4 19 316
1916320N15139 1916 70 WP MM NOT_NAMED 1916-11-16 00:00:00 NR 17.4864 136.677 main 1341 1298 __________P___ -1 17.4864 136.677 4 24 316
1916320N15139 1916 70 WP MM NOT_NAMED 1916-11-16 03:00:00 NR 18.4578 135.730 main 1301 1276 __________P___ -1 18.4578 135.730 4 27 320
1916320N15139 1916 70 WP MM NOT_NAMED 1916-11-16 06:00:00 NR 19.5743 134.842 main 1277 1202 __________P___ -1 19.5743 134.842 4 28 328
1916320N15139 1916 70 WP MM NOT_NAMED 1916-11-16 09:00:00 NR 20.8000 134.200 main 1191 1054 __________O___ -1 20.8000 134.200 4 27 341
1916320N15139 1916 70 WP MM NOT_NAMED 1916-11-16 12:00:00 NR 22.1258 133.920 main 1043 895 __________P___ -1 22.1258 133.920 4 28 355
1916320N15139 1916 70 WP MM NOT_NAMED 1916-11-16 15:00:00 NR 23.5424 133.934 main 895 762 __________P___ -1 23.5424 133.934 4 29 6
1916320N15139 1916 70 WP MM NOT_NAMED 1916-11-16 18:00:00 NR 24.9630 134.230 main 752 662 __________P___ -1 24.9630 134.230 4 29 16
1916320N15139 1916 70 WP MM NOT_NAMED 1916-11-16 21:00:00 NR 26.3000 134.800 main 658 597 __________O___ -1 26.3000 134.800 4 28 26
1916320N15139 1916 70 WP MM NOT_NAMED 1916-11-17 00:00:00 NR 27.4248 135.598 main 603 563 __________P___ -1 27.4248 135.598 4 27 37
1916320N15139 1916 70 WP MM NOT_NAMED 1916-11-17 03:00:00 NR 28.4522 136.656 main 553 484 __________P___ -1 28.4522 136.656 4 28 45
1916320N15139 1916 70 WP MM NOT_NAMED 1916-11-17 06:00:00 NR 29.4278 137.861 main 488 455 __________P___ -1 29.4278 137.861 4 29 48
1916320N15139 1916 70 WP MM NOT_NAMED 1916-11-17 09:00:00 NR 30.4000 139.100 main 456 379 __________O___ -1 30.4000 139.100 4 29 45
1916320N15139 1916 70 WP MM NOT_NAMED 1916-11-17 12:00:00 NR 31.4646 140.214 main 369 297 __________P___ -1 31.4646 140.214 4 29 42
1916320N15139 1916 70 WP MM NOT_NAMED 1916-11-17 15:00:00 NR 32.5342 141.340 main 297 257 __________P___ -1 32.5342 141.340 4 29 42
1916320N15139 1916 70 WP MM NOT_NAMED 1916-11-17 18:00:00 NR 33.5866 142.471 main 262 260 __________P___ -1 33.5866 142.471 4 28 42
1916320N15139 1916 70 WP MM NOT_NAMED 1916-11-17 21:00:00 NR 34.6000 143.600 main 273 273 __________O___ -1 34.6000 143.600 4 27 44
1916320N15139 1916 70 WP MM NOT_NAMED 1916-11-18 00:00:00 NR 35.5523 144.741 main 342 342 __________P___ -1 35.5523 144.741 4 26 45
1916320N15139 1916 70 WP MM NOT_NAMED 1916-11-18 03:00:00 NR 36.4637 145.875 main 436 436 __________P___ -1 36.4637 145.875 4 26 45
1916320N15139 1916 70 WP MM NOT_NAMED 1916-11-18 06:00:00 NR 37.3432 146.997 main 491 491 __________P___ -1 37.3432 146.997 4 25 46
1916320N15139 1916 70 WP MM NOT_NAMED 1916-11-18 09:00:00 NR 38.2000 148.100 main 537 537 __________O___ -1 38.2000 148.100 4 24 45
1916320N15139 1916 70 WP MM NOT_NAMED 1916-11-18 12:00:00 NR 39.0419 149.181 main 560 536 __________P___ -1 39.0419 149.181 4 24 45
1916320N15139 1916 70 WP MM NOT_NAMED 1916-11-18 15:00:00 NR 39.8720 150.250 main 535 535 __________P___ -1 39.8720 150.250 4 23 45
1916320N15139 1916 70 WP MM NOT_NAMED 1916-11-18 18:00:00 NR 40.6913 151.318 main 546 501 __________P___ -1 40.6913 151.318 4 23 45
1916320N15139 1916 70 WP MM NOT_NAMED 1916-11-18 21:00:00 NR 41.5000 152.400 main 504 __________O___ -1 41.5000 152.400 4 23 45

Digital Typhoon Data and Search

About IBTrACS Database

This database is a web-friendly format of International Best Track Archive for Climate Stewardship (IBTrACS), a global best track data archive curated by NOAA dating back to 1842.

Updated: 2021-12-01